sensor_id;sensor_type;location;lat;lon;timestamp;temperature;humidity
18506;DHT22;9382;53.242;10.438;2024-01-06T00:01:28;1.30;99.90
18506;DHT22;9382;53.242;10.438;2024-01-06T00:04:01;1.30;99.90
18506;DHT22;9382;53.242;10.438;2024-01-06T00:06:28;1.30;99.90
18506;DHT22;9382;53.242;10.438;2024-01-06T00:08:57;1.30;99.90
18506;DHT22;9382;53.242;10.438;2024-01-06T00:11:33;1.30;99.90
18506;DHT22;9382;53.242;10.438;2024-01-06T00:14:07;1.30;99.90
18506;DHT22;9382;53.242;10.438;2024-01-06T00:16:40;1.30;99.90
18506;DHT22;9382;53.242;10.438;2024-01-06T00:19:13;1.30;99.90
18506;DHT22;9382;53.242;10.438;2024-01-06T00:21:40;1.30;99.90
18506;DHT22;9382;53.242;10.438;2024-01-06T00:24:07;1.30;99.90
18506;DHT22;9382;53.242;10.438;2024-01-06T00:26:40;1.30;99.90
18506;DHT22;9382;53.242;10.438;2024-01-06T00:29:24;1.20;99.90
18506;DHT22;9382;53.242;10.438;2024-01-06T00:31:52;1.30;99.90
18506;DHT22;9382;53.242;10.438;2024-01-06T00:34:19;1.20;99.90
18506;DHT22;9382;53.242;10.438;2024-01-06T00:36:46;1.20;99.90
18506;DHT22;9382;53.242;10.438;2024-01-06T00:39:13;1.20;99.90
18506;DHT22;9382;53.242;10.438;2024-01-06T00:41:42;1.20;99.90
18506;DHT22;9382;53.242;10.438;2024-01-06T00:44:08;1.20;99.90
18506;DHT22;9382;53.242;10.438;2024-01-06T00:46:37;1.20;99.90
18506;DHT22;9382;53.242;10.438;2024-01-06T00:49:04;1.20;99.90
18506;DHT22;9382;53.242;10.438;2024-01-06T00:51:31;1.20;99.90
18506;DHT22;9382;53.242;10.438;2024-01-06T00:53:58;1.20;99.90
18506;DHT22;9382;53.242;10.438;2024-01-06T00:56:25;1.20;99.90
18506;DHT22;9382;53.242;10.438;2024-01-06T00:58:52;1.20;99.90
18506;DHT22;9382;53.242;10.438;2024-01-06T01:01:19;1.30;99.90
18506;DHT22;9382;53.242;10.438;2024-01-06T01:03:47;1.20;99.90
18506;DHT22;9382;53.242;10.438;2024-01-06T01:06:14;1.20;99.90
18506;DHT22;9382;53.242;10.438;2024-01-06T01:08:41;1.20;99.90
18506;DHT22;9382;53.242;10.438;2024-01-06T01:11:07;1.20;99.90
18506;DHT22;9382;53.242;10.438;2024-01-06T01:13:34;1.20;99.90
18506;DHT22;9382;53.242;10.438;2024-01-06T01:16:01;1.20;99.90
18506;DHT22;9382;53.242;10.438;2024-01-06T01:18:28;1.20;99.90
18506;DHT22;9382;53.242;10.438;2024-01-06T01:20:56;1.20;99.90
18506;DHT22;9382;53.242;10.438;2024-01-06T01:23:23;1.20;99.90
18506;DHT22;9382;53.242;10.438;2024-01-06T01:25:49;1.10;99.90
18506;DHT22;9382;53.242;10.438;2024-01-06T01:28:16;1.10;99.90
18506;DHT22;9382;53.242;10.438;2024-01-06T01:30:43;1.10;99.90
18506;DHT22;9382;53.242;10.438;2024-01-06T01:33:10;1.20;99.90
18506;DHT22;9382;53.242;10.438;2024-01-06T01:35:36;1.20;99.90
18506;DHT22;9382;53.242;10.438;2024-01-06T01:38:06;1.20;99.90
18506;DHT22;9382;53.242;10.438;2024-01-06T01:40:33;1.20;99.90
18506;DHT22;9382;53.242;10.438;2024-01-06T01:43:00;1.20;99.90
18506;DHT22;9382;53.242;10.438;2024-01-06T01:45:27;1.20;99.90
18506;DHT22;9382;53.242;10.438;2024-01-06T01:47:54;1.20;99.90
18506;DHT22;9382;53.242;10.438;2024-01-06T01:50:20;1.20;99.90
18506;DHT22;9382;53.242;10.438;2024-01-06T01:52:48;1.20;99.90
18506;DHT22;9382;53.242;10.438;2024-01-06T01:55:16;1.20;99.90
18506;DHT22;9382;53.242;10.438;2024-01-06T01:57:44;1.20;99.90
18506;DHT22;9382;53.242;10.438;2024-01-06T02:00:12;1.20;99.90
18506;DHT22;9382;53.242;10.438;2024-01-06T02:02:39;1.20;99.90
18506;DHT22;9382;53.242;10.438;2024-01-06T02:05:06;1.20;99.90
18506;DHT22;9382;53.242;10.438;2024-01-06T02:07:33;1.20;99.90
18506;DHT22;9382;53.242;10.438;2024-01-06T02:10:00;1.20;99.90
18506;DHT22;9382;53.242;10.438;2024-01-06T02:12:29;1.20;99.90
18506;DHT22;9382;53.242;10.438;2024-01-06T02:14:55;1.20;99.90
18506;DHT22;9382;53.242;10.438;2024-01-06T02:17:22;1.20;99.90
18506;DHT22;9382;53.242;10.438;2024-01-06T02:19:51;1.10;99.90
18506;DHT22;9382;53.242;10.438;2024-01-06T02:22:19;1.20;99.90
18506;DHT22;9382;53.242;10.438;2024-01-06T02:24:45;1.20;99.90
18506;DHT22;9382;53.242;10.438;2024-01-06T02:27:12;1.20;99.90
18506;DHT22;9382;53.242;10.438;2024-01-06T02:29:40;1.20;99.90
18506;DHT22;9382;53.242;10.438;2024-01-06T02:32:07;1.30;99.90
18506;DHT22;9382;53.242;10.438;2024-01-06T02:34:34;1.20;99.90
18506;DHT22;9382;53.242;10.438;2024-01-06T02:37:03;1.20;99.90
18506;DHT22;9382;53.242;10.438;2024-01-06T02:39:31;1.20;99.90
18506;DHT22;9382;53.242;10.438;2024-01-06T02:41:58;1.10;99.90
18506;DHT22;9382;53.242;10.438;2024-01-06T02:44:25;1.10;99.90
18506;DHT22;9382;53.242;10.438;2024-01-06T02:46:52;1.10;99.90
18506;DHT22;9382;53.242;10.438;2024-01-06T02:49:19;1.10;99.90
18506;DHT22;9382;53.242;10.438;2024-01-06T02:51:46;1.20;99.90
18506;DHT22;9382;53.242;10.438;2024-01-06T02:54:13;1.10;99.90
18506;DHT22;9382;53.242;10.438;2024-01-06T02:56:41;1.10;99.90
18506;DHT22;9382;53.242;10.438;2024-01-06T02:59:08;1.10;99.90
18506;DHT22;9382;53.242;10.438;2024-01-06T03:01:34;1.10;99.90
18506;DHT22;9382;53.242;10.438;2024-01-06T03:04:01;1.10;99.90
18506;DHT22;9382;53.242;10.438;2024-01-06T03:06:28;1.10;99.90
18506;DHT22;9382;53.242;10.438;2024-01-06T03:08:55;1.10;99.90
18506;DHT22;9382;53.242;10.438;2024-01-06T03:11:22;1.10;99.90
18506;DHT22;9382;53.242;10.438;2024-01-06T03:13:50;1.10;99.90
18506;DHT22;9382;53.242;10.438;2024-01-06T03:16:17;1.10;99.90
18506;DHT22;9382;53.242;10.438;2024-01-06T03:18:43;1.10;99.90
18506;DHT22;9382;53.242;10.438;2024-01-06T03:21:18;1.10;99.90
18506;DHT22;9382;53.242;10.438;2024-01-06T03:23:45;1.10;99.90
18506;DHT22;9382;53.242;10.438;2024-01-06T03:26:12;1.10;99.90
18506;DHT22;9382;53.242;10.438;2024-01-06T03:28:39;1.10;99.90
18506;DHT22;9382;53.242;10.438;2024-01-06T03:31:07;1.10;99.90
18506;DHT22;9382;53.242;10.438;2024-01-06T03:33:34;1.10;99.90
18506;DHT22;9382;53.242;10.438;2024-01-06T03:36:04;1.10;99.90
18506;DHT22;9382;53.242;10.438;2024-01-06T03:38:32;1.10;99.90
18506;DHT22;9382;53.242;10.438;2024-01-06T03:40:58;1.10;99.90
18506;DHT22;9382;53.242;10.438;2024-01-06T03:43:25;1.10;99.90
18506;DHT22;9382;53.242;10.438;2024-01-06T03:45:52;1.10;99.90
18506;DHT22;9382;53.242;10.438;2024-01-06T03:48:22;1.10;99.90
18506;DHT22;9382;53.242;10.438;2024-01-06T03:50:49;1.10;99.90
18506;DHT22;9382;53.242;10.438;2024-01-06T03:53:16;1.10;99.90
18506;DHT22;9382;53.242;10.438;2024-01-06T03:55:43;1.00;99.90
18506;DHT22;9382;53.242;10.438;2024-01-06T03:58:09;1.00;99.90
18506;DHT22;9382;53.242;10.438;2024-01-06T04:00:36;1.10;99.90
18506;DHT22;9382;53.242;10.438;2024-01-06T04:03:03;1.10;99.90
18506;DHT22;9382;53.242;10.438;2024-01-06T04:05:32;1.10;99.90
18506;DHT22;9382;53.242;10.438;2024-01-06T04:07:59;1.00;99.90
18506;DHT22;9382;53.242;10.438;2024-01-06T04:10:26;1.00;99.90
18506;DHT22;9382;53.242;10.438;2024-01-06T04:12:52;1.10;99.90
18506;DHT22;9382;53.242;10.438;2024-01-06T04:15:19;1.10;99.90
18506;DHT22;9382;53.242;10.438;2024-01-06T04:17:49;1.10;99.90
18506;DHT22;9382;53.242;10.438;2024-01-06T04:20:16;1.10;99.90
18506;DHT22;9382;53.242;10.438;2024-01-06T04:22:44;1.10;99.90
18506;DHT22;9382;53.242;10.438;2024-01-06T04:25:11;1.10;99.90
18506;DHT22;9382;53.242;10.438;2024-01-06T04:27:38;1.10;99.90
18506;DHT22;9382;53.242;10.438;2024-01-06T04:30:05;1.10;99.90
18506;DHT22;9382;53.242;10.438;2024-01-06T04:32:32;1.10;99.90
18506;DHT22;9382;53.242;10.438;2024-01-06T04:34:59;1.10;99.90
18506;DHT22;9382;53.242;10.438;2024-01-06T04:37:26;1.10;99.90
18506;DHT22;9382;53.242;10.438;2024-01-06T04:39:54;1.10;99.90
18506;DHT22;9382;53.242;10.438;2024-01-06T04:42:20;1.10;99.90
18506;DHT22;9382;53.242;10.438;2024-01-06T04:44:48;1.10;99.90
18506;DHT22;9382;53.242;10.438;2024-01-06T04:47:14;1.10;99.90
18506;DHT22;9382;53.242;10.438;2024-01-06T04:49:43;1.10;99.90
18506;DHT22;9382;53.242;10.438;2024-01-06T04:52:10;1.10;99.90
18506;DHT22;9382;53.242;10.438;2024-01-06T04:54:36;1.10;99.90
18506;DHT22;9382;53.242;10.438;2024-01-06T04:57:04;1.10;99.90
18506;DHT22;9382;53.242;10.438;2024-01-06T04:59:31;1.00;99.90
18506;DHT22;9382;53.242;10.438;2024-01-06T05:01:58;1.10;99.90
18506;DHT22;9382;53.242;10.438;2024-01-06T05:04:25;1.10;99.90
18506;DHT22;9382;53.242;10.438;2024-01-06T05:06:52;1.10;99.90
18506;DHT22;9382;53.242;10.438;2024-01-06T05:09:18;1.00;99.90
18506;DHT22;9382;53.242;10.438;2024-01-06T05:11:45;1.00;99.90
18506;DHT22;9382;53.242;10.438;2024-01-06T05:14:13;1.00;99.90
18506;DHT22;9382;53.242;10.438;2024-01-06T05:16:40;1.00;99.90
18506;DHT22;9382;53.242;10.438;2024-01-06T05:19:07;1.00;99.90
18506;DHT22;9382;53.242;10.438;2024-01-06T05:21:34;0.90;99.90
18506;DHT22;9382;53.242;10.438;2024-01-06T05:24:01;0.90;99.90
18506;DHT22;9382;53.242;10.438;2024-01-06T05:26:29;0.90;99.90
18506;DHT22;9382;53.242;10.438;2024-01-06T05:28:56;0.90;99.90
18506;DHT22;9382;53.242;10.438;2024-01-06T05:31:25;0.90;99.90
18506;DHT22;9382;53.242;10.438;2024-01-06T05:33:52;1.00;99.90
18506;DHT22;9382;53.242;10.438;2024-01-06T05:36:19;1.00;99.90
18506;DHT22;9382;53.242;10.438;2024-01-06T05:38:46;1.00;99.90
18506;DHT22;9382;53.242;10.438;2024-01-06T05:41:13;1.00;99.90
18506;DHT22;9382;53.242;10.438;2024-01-06T05:43:40;0.90;99.90
18506;DHT22;9382;53.242;10.438;2024-01-06T05:46:07;0.90;99.90
18506;DHT22;9382;53.242;10.438;2024-01-06T05:48:35;0.90;99.90
18506;DHT22;9382;53.242;10.438;2024-01-06T05:51:03;0.90;99.90
18506;DHT22;9382;53.242;10.438;2024-01-06T05:53:31;0.90;99.90
18506;DHT22;9382;53.242;10.438;2024-01-06T05:55:57;0.90;99.90
18506;DHT22;9382;53.242;10.438;2024-01-06T05:58:24;0.90;99.90
18506;DHT22;9382;53.242;10.438;2024-01-06T06:00:51;0.90;99.90
18506;DHT22;9382;53.242;10.438;2024-01-06T06:03:18;0.80;99.90
18506;DHT22;9382;53.242;10.438;2024-01-06T06:05:46;0.90;99.90
18506;DHT22;9382;53.242;10.438;2024-01-06T06:08:12;0.80;99.90
18506;DHT22;9382;53.242;10.438;2024-01-06T06:10:39;0.90;99.90
18506;DHT22;9382;53.242;10.438;2024-01-06T06:13:25;0.90;99.90
18506;DHT22;9382;53.242;10.438;2024-01-06T06:15:52;0.90;99.90
18506;DHT22;9382;53.242;10.438;2024-01-06T06:18:18;0.90;99.90
18506;DHT22;9382;53.242;10.438;2024-01-06T06:20:46;0.90;99.90
18506;DHT22;9382;53.242;10.438;2024-01-06T06:23:15;0.90;99.90
18506;DHT22;9382;53.242;10.438;2024-01-06T06:25:42;0.90;99.90
18506;DHT22;9382;53.242;10.438;2024-01-06T06:28:09;0.90;99.90
18506;DHT22;9382;53.242;10.438;2024-01-06T06:30:35;0.80;99.90
18506;DHT22;9382;53.242;10.438;2024-01-06T06:33:02;0.80;99.90
18506;DHT22;9382;53.242;10.438;2024-01-06T06:35:29;0.90;99.90
18506;DHT22;9382;53.242;10.438;2024-01-06T06:37:57;0.90;99.90
18506;DHT22;9382;53.242;10.438;2024-01-06T06:40:24;0.90;99.90
18506;DHT22;9382;53.242;10.438;2024-01-06T06:42:51;0.90;99.90
18506;DHT22;9382;53.242;10.438;2024-01-06T06:45:18;0.90;99.90
18506;DHT22;9382;53.242;10.438;2024-01-06T06:47:47;0.90;99.90
18506;DHT22;9382;53.242;10.438;2024-01-06T06:50:16;0.80;99.90
18506;DHT22;9382;53.242;10.438;2024-01-06T06:52:43;0.80;99.90
18506;DHT22;9382;53.242;10.438;2024-01-06T06:55:11;0.80;99.90
18506;DHT22;9382;53.242;10.438;2024-01-06T06:57:38;0.80;99.90
18506;DHT22;9382;53.242;10.438;2024-01-06T07:00:06;0.80;99.90
18506;DHT22;9382;53.242;10.438;2024-01-06T07:02:34;0.70;99.90
18506;DHT22;9382;53.242;10.438;2024-01-06T07:05:00;0.70;99.90
18506;DHT22;9382;53.242;10.438;2024-01-06T07:07:27;0.80;99.90
18506;DHT22;9382;53.242;10.438;2024-01-06T07:09:54;0.80;99.90
18506;DHT22;9382;53.242;10.438;2024-01-06T07:12:25;0.80;99.90
18506;DHT22;9382;53.242;10.438;2024-01-06T07:14:52;0.90;99.90
18506;DHT22;9382;53.242;10.438;2024-01-06T07:17:19;0.80;99.90
18506;DHT22;9382;53.242;10.438;2024-01-06T07:19:46;0.90;99.90
18506;DHT22;9382;53.242;10.438;2024-01-06T07:22:14;0.80;99.90
18506;DHT22;9382;53.242;10.438;2024-01-06T07:24:42;0.80;99.90
18506;DHT22;9382;53.242;10.438;2024-01-06T07:27:08;0.80;99.90
18506;DHT22;9382;53.242;10.438;2024-01-06T07:29:36;0.80;99.90
18506;DHT22;9382;53.242;10.438;2024-01-06T07:32:04;0.80;99.90
18506;DHT22;9382;53.242;10.438;2024-01-06T07:34:31;0.80;99.90
18506;DHT22;9382;53.242;10.438;2024-01-06T07:36:59;0.80;99.90
18506;DHT22;9382;53.242;10.438;2024-01-06T07:39:26;0.80;99.90
18506;DHT22;9382;53.242;10.438;2024-01-06T07:41:53;0.80;99.90
18506;DHT22;9382;53.242;10.438;2024-01-06T07:44:20;0.70;99.90
18506;DHT22;9382;53.242;10.438;2024-01-06T07:46:51;0.70;99.90
18506;DHT22;9382;53.242;10.438;2024-01-06T07:49:18;0.70;99.90
18506;DHT22;9382;53.242;10.438;2024-01-06T07:51:45;0.70;99.90
18506;DHT22;9382;53.242;10.438;2024-01-06T07:54:12;0.70;99.90
18506;DHT22;9382;53.242;10.438;2024-01-06T07:56:38;0.60;99.90
18506;DHT22;9382;53.242;10.438;2024-01-06T07:59:05;0.60;99.90
18506;DHT22;9382;53.242;10.438;2024-01-06T08:01:32;0.60;99.90
18506;DHT22;9382;53.242;10.438;2024-01-06T08:04:00;0.70;99.90
18506;DHT22;9382;53.242;10.438;2024-01-06T08:06:27;0.70;99.90
18506;DHT22;9382;53.242;10.438;2024-01-06T08:08:54;0.70;99.90
18506;DHT22;9382;53.242;10.438;2024-01-06T08:11:21;0.70;99.90
18506;DHT22;9382;53.242;10.438;2024-01-06T08:13:48;0.70;99.90
18506;DHT22;9382;53.242;10.438;2024-01-06T08:16:14;0.70;99.90
18506;DHT22;9382;53.242;10.438;2024-01-06T08:18:41;0.60;99.90
18506;DHT22;9382;53.242;10.438;2024-01-06T08:21:09;0.70;99.90
18506;DHT22;9382;53.242;10.438;2024-01-06T08:23:36;0.70;99.90
18506;DHT22;9382;53.242;10.438;2024-01-06T08:26:03;0.60;99.90
18506;DHT22;9382;53.242;10.438;2024-01-06T08:28:30;0.60;99.90
18506;DHT22;9382;53.242;10.438;2024-01-06T08:30:57;0.60;99.90
18506;DHT22;9382;53.242;10.438;2024-01-06T08:33:23;0.60;99.90
18506;DHT22;9382;53.242;10.438;2024-01-06T08:35:50;0.60;99.90
18506;DHT22;9382;53.242;10.438;2024-01-06T08:38:18;0.60;99.90
18506;DHT22;9382;53.242;10.438;2024-01-06T08:40:45;0.50;99.90
18506;DHT22;9382;53.242;10.438;2024-01-06T08:43:13;0.60;99.90
18506;DHT22;9382;53.242;10.438;2024-01-06T08:45:40;0.60;99.90
18506;DHT22;9382;53.242;10.438;2024-01-06T08:48:07;0.50;99.90
18506;DHT22;9382;53.242;10.438;2024-01-06T08:50:34;0.50;99.90
18506;DHT22;9382;53.242;10.438;2024-01-06T08:53:01;0.60;99.90
18506;DHT22;9382;53.242;10.438;2024-01-06T08:55:29;0.50;99.90
18506;DHT22;9382;53.242;10.438;2024-01-06T08:57:55;0.50;99.90
18506;DHT22;9382;53.242;10.438;2024-01-06T09:00:23;0.50;99.90
18506;DHT22;9382;53.242;10.438;2024-01-06T09:02:50;0.50;99.90
18506;DHT22;9382;53.242;10.438;2024-01-06T09:05:17;0.50;99.90
18506;DHT22;9382;53.242;10.438;2024-01-06T09:07:43;0.60;99.90
18506;DHT22;9382;53.242;10.438;2024-01-06T09:10:14;0.60;99.90
18506;DHT22;9382;53.242;10.438;2024-01-06T09:12:42;0.60;99.90
18506;DHT22;9382;53.242;10.438;2024-01-06T09:15:09;0.60;99.90
18506;DHT22;9382;53.242;10.438;2024-01-06T09:17:36;0.50;99.90
18506;DHT22;9382;53.242;10.438;2024-01-06T09:20:03;0.50;99.90
18506;DHT22;9382;53.242;10.438;2024-01-06T09:22:30;0.50;99.90
18506;DHT22;9382;53.242;10.438;2024-01-06T09:24:57;0.50;99.90
18506;DHT22;9382;53.242;10.438;2024-01-06T09:27:24;0.50;99.90
18506;DHT22;9382;53.242;10.438;2024-01-06T09:29:52;0.60;99.90
18506;DHT22;9382;53.242;10.438;2024-01-06T09:32:19;0.50;99.90
18506;DHT22;9382;53.242;10.438;2024-01-06T09:34:48;0.50;99.90
18506;DHT22;9382;53.242;10.438;2024-01-06T09:37:15;0.50;99.90
18506;DHT22;9382;53.242;10.438;2024-01-06T09:39:41;0.50;99.90
18506;DHT22;9382;53.242;10.438;2024-01-06T09:42:08;0.50;99.90
18506;DHT22;9382;53.242;10.438;2024-01-06T09:44:36;0.50;99.90
18506;DHT22;9382;53.242;10.438;2024-01-06T09:47:04;0.60;99.90
18506;DHT22;9382;53.242;10.438;2024-01-06T09:49:32;0.60;99.90
18506;DHT22;9382;53.242;10.438;2024-01-06T09:52:03;0.50;99.90
18506;DHT22;9382;53.242;10.438;2024-01-06T09:54:30;0.60;99.90
18506;DHT22;9382;53.242;10.438;2024-01-06T09:57:00;0.50;99.90
18506;DHT22;9382;53.242;10.438;2024-01-06T09:59:28;0.60;99.90
18506;DHT22;9382;53.242;10.438;2024-01-06T10:02:00;0.50;99.90
18506;DHT22;9382;53.242;10.438;2024-01-06T10:04:29;0.50;99.90
18506;DHT22;9382;53.242;10.438;2024-01-06T10:06:56;0.50;99.90
18506;DHT22;9382;53.242;10.438;2024-01-06T10:09:26;0.50;99.90
18506;DHT22;9382;53.242;10.438;2024-01-06T10:11:55;0.50;99.90
18506;DHT22;9382;53.242;10.438;2024-01-06T10:14:23;0.60;99.90
18506;DHT22;9382;53.242;10.438;2024-01-06T10:16:50;0.60;99.90
18506;DHT22;9382;53.242;10.438;2024-01-06T10:19:16;0.50;99.90
18506;DHT22;9382;53.242;10.438;2024-01-06T10:21:45;0.60;99.90
18506;DHT22;9382;53.242;10.438;2024-01-06T10:24:11;0.50;99.90
18506;DHT22;9382;53.242;10.438;2024-01-06T10:26:39;0.50;99.90
18506;DHT22;9382;53.242;10.438;2024-01-06T10:29:06;0.50;99.90
18506;DHT22;9382;53.242;10.438;2024-01-06T10:31:33;0.60;99.90
18506;DHT22;9382;53.242;10.438;2024-01-06T10:34:04;0.60;99.90
18506;DHT22;9382;53.242;10.438;2024-01-06T10:36:35;0.60;99.90
18506;DHT22;9382;53.242;10.438;2024-01-06T10:39:03;0.60;99.90
18506;DHT22;9382;53.242;10.438;2024-01-06T10:41:42;0.60;99.90
18506;DHT22;9382;53.242;10.438;2024-01-06T10:44:13;0.70;99.90
18506;DHT22;9382;53.242;10.438;2024-01-06T10:46:41;0.70;99.90
18506;DHT22;9382;53.242;10.438;2024-01-06T10:49:08;0.80;99.90
18506;DHT22;9382;53.242;10.438;2024-01-06T10:51:37;0.70;99.90
18506;DHT22;9382;53.242;10.438;2024-01-06T10:54:05;0.80;99.90
18506;DHT22;9382;53.242;10.438;2024-01-06T10:56:36;0.80;99.90
18506;DHT22;9382;53.242;10.438;2024-01-06T10:59:04;0.80;99.90
18506;DHT22;9382;53.242;10.438;2024-01-06T11:01:33;0.80;99.90
18506;DHT22;9382;53.242;10.438;2024-01-06T11:04:02;0.80;99.90
18506;DHT22;9382;53.242;10.438;2024-01-06T11:06:30;0.90;99.90
18506;DHT22;9382;53.242;10.438;2024-01-06T11:09:01;0.90;99.90
18506;DHT22;9382;53.242;10.438;2024-01-06T11:11:35;1.00;99.90
18506;DHT22;9382;53.242;10.438;2024-01-06T11:14:18;1.00;99.90
18506;DHT22;9382;53.242;10.438;2024-01-06T11:16:46;1.10;99.90
18506;DHT22;9382;53.242;10.438;2024-01-06T11:19:43;1.10;99.90
18506;DHT22;9382;53.242;10.438;2024-01-06T11:22:24;1.10;99.90
18506;DHT22;9382;53.242;10.438;2024-01-06T11:24:52;1.10;99.90
18506;DHT22;9382;53.242;10.438;2024-01-06T11:27:23;1.00;99.90
18506;DHT22;9382;53.242;10.438;2024-01-06T11:29:52;0.90;99.90
18506;DHT22;9382;53.242;10.438;2024-01-06T11:32:25;0.90;99.90
18506;DHT22;9382;53.242;10.438;2024-01-06T11:34:53;0.90;99.90
18506;DHT22;9382;53.242;10.438;2024-01-06T11:37:24;0.90;99.90
18506;DHT22;9382;53.242;10.438;2024-01-06T11:39:51;0.90;99.90
18506;DHT22;9382;53.242;10.438;2024-01-06T11:42:19;0.90;99.90
18506;DHT22;9382;53.242;10.438;2024-01-06T11:44:52;0.80;99.90
18506;DHT22;9382;53.242;10.438;2024-01-06T11:47:19;0.80;99.90
18506;DHT22;9382;53.242;10.438;2024-01-06T11:49:54;0.80;99.90
18506;DHT22;9382;53.242;10.438;2024-01-06T11:52:24;0.80;99.90
18506;DHT22;9382;53.242;10.438;2024-01-06T11:54:52;0.80;99.90
18506;DHT22;9382;53.242;10.438;2024-01-06T11:57:19;0.80;99.90
18506;DHT22;9382;53.242;10.438;2024-01-06T11:59:47;0.90;99.90
18506;DHT22;9382;53.242;10.438;2024-01-06T12:02:20;0.90;99.90
18506;DHT22;9382;53.242;10.438;2024-01-06T12:04:48;0.80;99.90
18506;DHT22;9382;53.242;10.438;2024-01-06T12:07:16;0.80;99.90
18506;DHT22;9382;53.242;10.438;2024-01-06T12:09:43;0.80;99.90
18506;DHT22;9382;53.242;10.438;2024-01-06T12:12:10;0.90;99.90
18506;DHT22;9382;53.242;10.438;2024-01-06T12:14:40;0.90;99.90
18506;DHT22;9382;53.242;10.438;2024-01-06T12:17:07;1.00;99.90
18506;DHT22;9382;53.242;10.438;2024-01-06T12:19:35;1.00;99.90
18506;DHT22;9382;53.242;10.438;2024-01-06T12:22:03;1.10;99.90
18506;DHT22;9382;53.242;10.438;2024-01-06T12:24:30;1.10;99.90
18506;DHT22;9382;53.242;10.438;2024-01-06T12:26:58;1.10;99.90
18506;DHT22;9382;53.242;10.438;2024-01-06T12:29:26;1.10;99.90
18506;DHT22;9382;53.242;10.438;2024-01-06T12:31:54;1.20;99.90
18506;DHT22;9382;53.242;10.438;2024-01-06T12:34:21;1.20;99.90
18506;DHT22;9382;53.242;10.438;2024-01-06T12:36:53;1.30;99.90
18506;DHT22;9382;53.242;10.438;2024-01-06T12:39:21;1.20;99.90
18506;DHT22;9382;53.242;10.438;2024-01-06T12:41:50;1.20;99.90
18506;DHT22;9382;53.242;10.438;2024-01-06T12:44:16;1.10;99.90
18506;DHT22;9382;53.242;10.438;2024-01-06T12:46:43;1.10;99.90
18506;DHT22;9382;53.242;10.438;2024-01-06T12:49:10;1.10;99.90
18506;DHT22;9382;53.242;10.438;2024-01-06T12:51:37;1.10;99.90
18506;DHT22;9382;53.242;10.438;2024-01-06T12:54:05;1.10;99.90
18506;DHT22;9382;53.242;10.438;2024-01-06T12:56:32;1.00;99.90
18506;DHT22;9382;53.242;10.438;2024-01-06T12:58:59;1.00;99.90
18506;DHT22;9382;53.242;10.438;2024-01-06T13:01:26;1.00;99.90
18506;DHT22;9382;53.242;10.438;2024-01-06T13:03:53;1.00;99.90
18506;DHT22;9382;53.242;10.438;2024-01-06T13:06:20;1.00;99.90
18506;DHT22;9382;53.242;10.438;2024-01-06T13:08:47;0.90;99.90
18506;DHT22;9382;53.242;10.438;2024-01-06T13:11:16;0.90;99.90
18506;DHT22;9382;53.242;10.438;2024-01-06T13:13:43;0.80;99.90
18506;DHT22;9382;53.242;10.438;2024-01-06T13:16:10;0.80;99.90
18506;DHT22;9382;53.242;10.438;2024-01-06T13:18:37;0.80;99.90
18506;DHT22;9382;53.242;10.438;2024-01-06T13:21:04;0.70;99.90
18506;DHT22;9382;53.242;10.438;2024-01-06T13:23:31;0.60;99.90
18506;DHT22;9382;53.242;10.438;2024-01-06T13:25:58;0.60;99.90
18506;DHT22;9382;53.242;10.438;2024-01-06T13:28:26;0.60;99.90
18506;DHT22;9382;53.242;10.438;2024-01-06T13:30:53;0.60;99.90
18506;DHT22;9382;53.242;10.438;2024-01-06T13:33:20;0.60;99.90
18506;DHT22;9382;53.242;10.438;2024-01-06T13:35:48;0.60;99.90
18506;DHT22;9382;53.242;10.438;2024-01-06T13:38:15;0.70;99.90
18506;DHT22;9382;53.242;10.438;2024-01-06T13:40:42;0.70;99.90
18506;DHT22;9382;53.242;10.438;2024-01-06T13:43:08;0.60;99.90
18506;DHT22;9382;53.242;10.438;2024-01-06T13:45:42;0.60;99.90
18506;DHT22;9382;53.242;10.438;2024-01-06T13:48:10;0.60;99.90
18506;DHT22;9382;53.242;10.438;2024-01-06T13:50:36;0.50;99.90
18506;DHT22;9382;53.242;10.438;2024-01-06T13:53:04;0.50;99.90
18506;DHT22;9382;53.242;10.438;2024-01-06T13:55:31;0.50;99.90
18506;DHT22;9382;53.242;10.438;2024-01-06T13:57:59;0.50;99.90
18506;DHT22;9382;53.242;10.438;2024-01-06T14:00:25;0.50;99.90
18506;DHT22;9382;53.242;10.438;2024-01-06T14:02:54;0.50;99.90
18506;DHT22;9382;53.242;10.438;2024-01-06T14:05:23;0.50;99.90
18506;DHT22;9382;53.242;10.438;2024-01-06T14:07:50;0.60;99.90
18506;DHT22;9382;53.242;10.438;2024-01-06T14:10:17;0.60;99.90
18506;DHT22;9382;53.242;10.438;2024-01-06T14:12:44;0.50;99.90
18506;DHT22;9382;53.242;10.438;2024-01-06T14:15:11;0.50;99.90
18506;DHT22;9382;53.242;10.438;2024-01-06T14:17:38;0.50;99.90
18506;DHT22;9382;53.242;10.438;2024-01-06T14:20:08;0.50;99.90
18506;DHT22;9382;53.242;10.438;2024-01-06T14:22:38;0.50;99.90
18506;DHT22;9382;53.242;10.438;2024-01-06T14:25:06;0.50;99.90
18506;DHT22;9382;53.242;10.438;2024-01-06T14:27:33;0.40;99.90
18506;DHT22;9382;53.242;10.438;2024-01-06T14:29:59;0.30;99.90
18506;DHT22;9382;53.242;10.438;2024-01-06T14:32:26;0.30;99.90
18506;DHT22;9382;53.242;10.438;2024-01-06T14:34:54;0.30;99.90
18506;DHT22;9382;53.242;10.438;2024-01-06T14:37:22;0.30;99.90
18506;DHT22;9382;53.242;10.438;2024-01-06T14:39:49;0.30;99.90
18506;DHT22;9382;53.242;10.438;2024-01-06T14:42:16;0.20;99.90
18506;DHT22;9382;53.242;10.438;2024-01-06T14:44:44;0.20;99.90
18506;DHT22;9382;53.242;10.438;2024-01-06T14:47:11;0.20;99.90
18506;DHT22;9382;53.242;10.438;2024-01-06T14:49:38;0.20;99.90
18506;DHT22;9382;53.242;10.438;2024-01-06T14:52:05;0.10;99.90
18506;DHT22;9382;53.242;10.438;2024-01-06T14:54:34;0.10;99.90
18506;DHT22;9382;53.242;10.438;2024-01-06T14:57:07;0.00;99.90
18506;DHT22;9382;53.242;10.438;2024-01-06T14:59:34;0.00;99.90
18506;DHT22;9382;53.242;10.438;2024-01-06T15:02:02;0.00;99.90
18506;DHT22;9382;53.242;10.438;2024-01-06T15:04:29;0.00;99.90
18506;DHT22;9382;53.242;10.438;2024-01-06T15:06:56;0.10;99.90
18506;DHT22;9382;53.242;10.438;2024-01-06T15:09:23;0.00;99.90
18506;DHT22;9382;53.242;10.438;2024-01-06T15:11:53;0.00;99.90
18506;DHT22;9382;53.242;10.438;2024-01-06T15:14:20;0.00;99.90
18506;DHT22;9382;53.242;10.438;2024-01-06T15:16:47;0.00;99.90
18506;DHT22;9382;53.242;10.438;2024-01-06T15:19:13;0.00;99.90
18506;DHT22;9382;53.242;10.438;2024-01-06T15:21:40;0.00;99.90
18506;DHT22;9382;53.242;10.438;2024-01-06T15:24:08;0.00;99.90
18506;DHT22;9382;53.242;10.438;2024-01-06T15:26:35;0.10;99.90
18506;DHT22;9382;53.242;10.438;2024-01-06T15:29:03;-0.10;99.90
18506;DHT22;9382;53.242;10.438;2024-01-06T15:31:30;-0.10;99.90
18506;DHT22;9382;53.242;10.438;2024-01-06T15:33:58;-0.10;99.90
18506;DHT22;9382;53.242;10.438;2024-01-06T15:36:25;0.00;99.90
18506;DHT22;9382;53.242;10.438;2024-01-06T15:38:53;0.00;99.90
18506;DHT22;9382;53.242;10.438;2024-01-06T15:41:20;0.00;99.90
18506;DHT22;9382;53.242;10.438;2024-01-06T15:43:46;0.00;99.90
18506;DHT22;9382;53.242;10.438;2024-01-06T15:46:14;0.00;99.90
18506;DHT22;9382;53.242;10.438;2024-01-06T15:48:49;0.00;99.90